Time;durP1;ratioP1;P1;durP2;ratioP2;P2;SDS_P1;SDS_P2;PMS_P1;PMS_P2;Temp;Humidity;BMP_temperature;BMP_pressure;BME280_temperature;BME280_humidity;BME280_pressure;Samples;Min_cycle;Max_cycle;Signal;HPM_P1;HPM_P2
2022/01/07 00:00:42;;;;;;;6.90;5.27;;;;;;;;;;5053474;28;20082;-51
2022/01/07 00:03:08;;;;;;;10.00;4.40;;;;;;;;;;5037433;28;20042;-54
2022/01/07 00:05:35;;;;;;;9.00;6.57;;;;;;;;;;5034067;28;20435;-54
2022/01/07 00:08:01;;;;;;;6.97;4.27;;;;;;;;;;5033458;28;20029;-56
2022/01/07 00:10:27;;;;;;;11.50;6.27;;;;;;;;;;5034081;28;20022;-54
2022/01/07 00:12:53;;;;;;;8.67;4.63;;;;;;;;;;5047338;28;20471;-53
2022/01/07 00:15:20;;;;;;;9.30;6.30;;;;;;;;;;5053536;28;20036;-52
2022/01/07 00:17:46;;;;;;;6.03;5.03;;;;;;;;;;5053863;28;20075;-56
2022/01/07 00:20:12;;;;;;;11.50;5.67;;;;;;;;;;5053692;28;20084;-55
2022/01/07 00:22:39;;;;;;;11.03;5.47;;;;;;;;;;5053525;28;20074;-51
2022/01/07 00:25:05;;;;;;;7.53;5.30;;;;;;;;;;5053534;28;20033;-52
2022/01/07 00:27:31;;;;;;;14.43;6.70;;;;;;;;;;5053335;28;20032;-53
2022/01/07 00:29:57;;;;;;;13.57;5.90;;;;;;;;;;5052912;28;20032;-56
2022/01/07 00:32:23;;;;;;;7.20;5.13;;;;;;;;;;5053334;28;20105;-53
2022/01/07 00:34:49;;;;;;;11.13;7.97;;;;;;;;;;5053416;28;20045;-54
2022/01/07 00:37:15;;;;;;;8.23;4.83;;;;;;;;;;5053151;28;20111;-54
2022/01/07 00:39:41;;;;;;;13.37;6.40;;;;;;;;;;5052504;28;20514;-54
2022/01/07 00:42:08;;;;;;;5.93;5.13;;;;;;;;;;5052966;28;20036;-54
2022/01/07 00:44:34;;;;;;;9.23;5.47;;;;;;;;;;5053085;28;20497;-54
2022/01/07 00:47:00;;;;;;;8.20;6.73;;;;;;;;;;5052934;28;20116;-54
2022/01/07 00:49:26;;;;;;;6.73;5.83;;;;;;;;;;5052468;28;20056;-55
2022/01/07 00:51:52;;;;;;;11.70;6.77;;;;;;;;;;5052840;28;20413;-55
2022/01/07 00:54:19;;;;;;;13.73;7.33;;;;;;;;;;5052980;28;20040;-54
2022/01/07 00:56:46;;;;;;;5.40;4.80;;;;;;;;;;5052585;28;20386;-55
2022/01/07 00:59:12;;;;;;;6.70;5.70;;;;;;;;;;5052465;28;20036;-55
2022/01/07 01:01:38;;;;;;;6.13;5.03;;;;;;;;;;5048859;28;20025;-54
2022/01/07 01:04:04;;;;;;;10.10;6.90;;;;;;;;;;5033018;28;20033;-52
2022/01/07 01:06:30;;;;;;;6.73;4.63;;;;;;;;;;5032712;28;20446;-51
2022/01/07 01:08:56;;;;;;;5.90;4.40;;;;;;;;;;5032219;28;20047;-53
2022/01/07 01:11:22;;;;;;;7.63;6.27;;;;;;;;;;5033796;28;20029;-53
2022/01/07 01:13:48;;;;;;;7.10;5.20;;;;;;;;;;5052746;28;20039;-53
2022/01/07 01:16:14;;;;;;;8.37;5.27;;;;;;;;;;5052768;28;20033;-53
2022/01/07 01:18:40;;;;;;;6.57;5.10;;;;;;;;;;5052031;28;20029;-55
2022/01/07 01:21:06;;;;;;;6.03;4.87;;;;;;;;;;5052379;28;20489;-56
2022/01/07 01:23:32;;;;;;;11.97;6.43;;;;;;;;;;5052386;28;20139;-53
2022/01/07 01:25:58;;;;;;;9.50;6.83;;;;;;;;;;5052717;28;20086;-53
2022/01/07 01:28:24;;;;;;;15.27;4.60;;;;;;;;;;5052362;28;20021;-53
2022/01/07 01:30:50;;;;;;;13.27;6.30;;;;;;;;;;5052668;28;20123;-51
2022/01/07 01:33:18;;;;;;;8.17;5.23;;;;;;;;;;5052467;28;20486;-52
2022/01/07 01:35:44;;;;;;;8.83;5.07;;;;;;;;;;5052620;28;20040;-55
2022/01/07 01:38:10;;;;;;;7.47;4.20;;;;;;;;;;5052235;28;20032;-56
2022/01/07 01:40:36;;;;;;;8.57;5.83;;;;;;;;;;5052279;28;20037;-52
2022/01/07 01:43:02;;;;;;;6.57;4.70;;;;;;;;;;5052388;28;20033;-53
2022/01/07 01:45:28;;;;;;;4.93;4.43;;;;;;;;;;5052421;28;20028;-54
2022/01/07 01:47:54;;;;;;;10.37;5.27;;;;;;;;;;5051730;28;20057;-51
2022/01/07 01:50:21;;;;;;;6.50;4.63;;;;;;;;;;5051513;28;20021;-51
2022/01/07 01:52:50;;;;;;;7.97;4.20;;;;;;;;;;5052008;28;20474;-52
2022/01/07 01:55:17;;;;;;;11.07;6.43;;;;;;;;;;5051934;28;20032;-55
2022/01/07 01:57:43;;;;;;;6.83;5.13;;;;;;;;;;5051870;28;20075;-53
2022/01/07 02:00:10;;;;;;;7.33;3.77;;;;;;;;;;5051826;28;20115;-55
2022/01/07 02:02:36;;;;;;;7.77;4.60;;;;;;;;;;5040109;28;20463;-52
2022/01/07 02:05:03;;;;;;;9.30;5.03;;;;;;;;;;5032095;28;20071;-49
2022/01/07 02:07:29;;;;;;;7.83;4.83;;;;;;;;;;5031886;28;20356;-51
2022/01/07 02:09:55;;;;;;;9.50;5.83;;;;;;;;;;5031428;28;20038;-53
2022/01/07 02:12:22;;;;;;;7.50;5.30;;;;;;;;;;5041207;28;20037;-54
2022/01/07 02:14:56;;;;;;;8.17;5.20;;;;;;;;;;5052333;28;20036;-52
2022/01/07 02:17:22;;;;;;;5.27;3.87;;;;;;;;;;5051856;28;20038;-53
2022/01/07 02:19:49;;;;;;;8.70;5.67;;;;;;;;;;5051370;28;20303;-54
2022/01/07 02:22:17;;;;;;;7.47;5.90;;;;;;;;;;5051355;28;20029;-54
2022/01/07 02:24:43;;;;;;;11.60;5.53;;;;;;;;;;5050739;28;20029;-53
2022/01/07 02:27:11;;;;;;;6.53;5.37;;;;;;;;;;5052059;28;20025;-51
2022/01/07 02:29:37;;;;;;;7.73;5.43;;;;;;;;;;5051147;28;20032;-54
2022/01/07 02:32:03;;;;;;;12.73;5.57;;;;;;;;;;5051818;28;20033;-51
2022/01/07 02:34:29;;;;;;;10.97;6.17;;;;;;;;;;5051571;28;20033;-54
2022/01/07 02:36:55;;;;;;;9.00;6.53;;;;;;;;;;5051961;28;20060;-56
2022/01/07 02:39:21;;;;;;;8.50;5.57;;;;;;;;;;5051203;28;20060;-56
2022/01/07 02:41:47;;;;;;;7.03;5.97;;;;;;;;;;5051801;28;20079;-51
2022/01/07 02:44:13;;;;;;;10.17;7.63;;;;;;;;;;5051829;28;20448;-54
2022/01/07 02:46:39;;;;;;;7.27;6.00;;;;;;;;;;5051849;28;20025;-56
2022/01/07 02:49:12;;;;;;;12.03;8.87;;;;;;;;;;5050967;28;20029;-56
2022/01/07 02:51:38;;;;;;;9.73;7.87;;;;;;;;;;5051797;28;20029;-55
2022/01/07 02:54:05;;;;;;;15.53;8.30;;;;;;;;;;5051677;28;20112;-53
2022/01/07 02:56:31;;;;;;;12.47;7.57;;;;;;;;;;5051743;28;20033;-53
2022/01/07 02:58:57;;;;;;;10.80;5.30;;;;;;;;;;5051083;28;20487;-51
2022/01/07 03:01:23;;;;;;;12.03;7.43;;;;;;;;;;5051075;28;20017;-52
2022/01/07 03:03:49;;;;;;;8.47;5.83;;;;;;;;;;5035044;28;20060;-51
2022/01/07 03:06:15;;;;;;;8.17;6.33;;;;;;;;;;5035479;28;20025;-51
2022/01/07 03:08:41;;;;;;;7.60;5.23;;;;;;;;;;5034475;28;20037;-49
2022/01/07 03:11:07;;;;;;;8.93;6.30;;;;;;;;;;5035423;28;20025;-49
2022/01/07 03:13:33;;;;;;;11.83;5.93;;;;;;;;;;5054132;28;20429;-54
2022/01/07 03:15:59;;;;;;;7.77;6.30;;;;;;;;;;5055062;28;20036;-51
2022/01/07 03:18:24;;;;;;;13.13;6.37;;;;;;;;;;5054122;28;20035;-55
2022/01/07 03:20:50;;;;;;;9.30;5.33;;;;;;;;;;5055230;28;20037;-51
2022/01/07 03:23:16;;;;;;;10.43;6.73;;;;;;;;;;5054734;28;20117;-50
2022/01/07 03:25:46;;;;;;;10.00;5.60;;;;;;;;;;5054915;28;20119;-50
2022/01/07 03:28:12;;;;;;;5.83;4.43;;;;;;;;;;5054211;28;20064;-55
2022/01/07 03:30:39;;;;;;;12.03;5.77;;;;;;;;;;5054895;28;20029;-57
2022/01/07 03:33:05;;;;;;;7.33;5.73;;;;;;;;;;5054565;28;20037;-54
2022/01/07 03:35:31;;;;;;;7.63;4.97;;;;;;;;;;5054522;28;20043;-56
2022/01/07 03:37:57;;;;;;;4.90;3.60;;;;;;;;;;5054111;28;20462;-54
2022/01/07 03:40:23;;;;;;;9.57;5.40;;;;;;;;;;5054690;28;20026;-51
2022/01/07 03:42:50;;;;;;;6.00;5.27;;;;;;;;;;5054578;28;20035;-51
2022/01/07 03:45:16;;;;;;;5.03;4.47;;;;;;;;;;5054471;28;20090;-54
2022/01/07 03:47:43;;;;;;;13.03;5.93;;;;;;;;;;5054188;28;20268;-55
2022/01/07 03:50:10;;;;;;;9.30;6.77;;;;;;;;;;5054137;28;20138;-52
2022/01/07 03:52:36;;;;;;;8.67;6.10;;;;;;;;;;5054346;28;20036;-53
2022/01/07 03:55:04;;;;;;;11.20;5.70;;;;;;;;;;5054072;28;20352;-54
2022/01/07 03:57:29;;;;;;;12.70;6.77;;;;;;;;;;5054299;28;20032;-53
2022/01/07 03:59:55;;;;;;;4.43;4.03;;;;;;;;;;5053543;28;20026;-52
2022/01/07 04:02:21;;;;;;;9.37;6.43;;;;;;;;;;5044555;28;20111;-54
2022/01/07 04:04:47;;;;;;;7.80;5.43;;;;;;;;;;5034109;28;20039;-53
2022/01/07 04:07:13;;;;;;;6.13;4.50;;;;;;;;;;5034400;28;20426;-54
2022/01/07 04:09:40;;;;;;;6.43;5.03;;;;;;;;;;5033414;28;20029;-53
2022/01/07 04:12:06;;;;;;;7.53;5.77;;;;;;;;;;5040839;28;20033;-51
2022/01/07 04:14:32;;;;;;;6.77;5.30;;;;;;;;;;5053391;28;20028;-56
2022/01/07 04:17:01;;;;;;;9.93;6.57;;;;;;;;;;5053817;28;20497;-53
2022/01/07 04:19:27;;;;;;;8.93;5.27;;;;;;;;;;5053387;28;20029;-52
2022/01/07 04:21:53;;;;;;;8.30;6.07;;;;;;;;;;5053932;28;20075;-55
2022/01/07 04:24:20;;;;;;;8.43;5.87;;;;;;;;;;5053838;28;20467;-55
2022/01/07 04:26:45;;;;;;;9.23;6.07;;;;;;;;;;5053809;28;20025;-56
2022/01/07 04:29:11;;;;;;;8.80;5.63;;;;;;;;;;5052989;28;20248;-55
2022/01/07 04:31:37;;;;;;;7.33;5.83;;;;;;;;;;5049362;28;20025;-55
2022/01/07 04:34:03;;;;;;;10.33;6.47;;;;;;;;;;5053747;28;20029;-53
2022/01/07 04:36:29;;;;;;;8.63;5.23;;;;;;;;;;5053740;28;20392;-51
2022/01/07 04:38:55;;;;;;;5.80;5.17;;;;;;;;;;5052888;28;20087;-53
2022/01/07 04:41:21;;;;;;;7.10;5.50;;;;;;;;;;5053577;28;20418;-53
2022/01/07 04:43:48;;;;;;;11.23;7.80;;;;;;;;;;5053333;28;20029;-53
2022/01/07 04:46:14;;;;;;;8.47;4.67;;;;;;;;;;5053512;28;20374;-53
2022/01/07 04:48:40;;;;;;;5.93;4.67;;;;;;;;;;5053028;28;20021;-54
2022/01/07 04:51:06;;;;;;;9.00;6.93;;;;;;;;;;5053456;28;20067;-52
2022/01/07 04:53:33;;;;;;;6.83;6.13;;;;;;;;;;5053424;28;20040;-52
2022/01/07 04:55:59;;;;;;;8.50;5.00;;;;;;;;;;5053021;28;20037;-51
2022/01/07 04:58:25;;;;;;;10.00;7.87;;;;;;;;;;5052398;28;20087;-53
2022/01/07 05:00:51;;;;;;;10.83;7.47;;;;;;;;;;5053130;28;20028;-51
2022/01/07 05:03:17;;;;;;;12.53;5.93;;;;;;;;;;5035356;28;20036;-51
2022/01/07 05:05:48;;;;;;;7.37;6.03;;;;;;;;;;5033174;28;20029;-54
2022/01/07 05:08:16;;;;;;;10.97;5.73;;;;;;;;;;5032524;28;20036;-52
2022/01/07 05:10:42;;;;;;;6.80;4.60;;;;;;;;;;5032982;28;20075;-53
2022/01/07 05:13:08;;;;;;;8.03;5.43;;;;;;;;;;5048357;28;20036;-49
2022/01/07 05:15:35;;;;;;;9.27;6.47;;;;;;;;;;5053301;28;20048;-51
2022/01/07 05:18:01;;;;;;;12.53;6.40;;;;;;;;;;5052404;28;20114;-51
2022/01/07 05:20:28;;;;;;;12.00;6.20;;;;;;;;;;5052936;28;20028;-51
2022/01/07 05:22:54;;;;;;;9.63;7.13;;;;;;;;;;5052854;28;20025;-52
2022/01/07 05:25:21;;;;;;;6.07;4.93;;;;;;;;;;5052455;28;20032;-52
2022/01/07 05:27:47;;;;;;;8.53;6.47;;;;;;;;;;5051878;28;20583;-53
2022/01/07 05:30:13;;;;;;;5.43;4.83;;;;;;;;;;5052822;28;20378;-52
2022/01/07 05:32:39;;;;;;;7.20;6.17;;;;;;;;;;5051210;28;20032;-52
2022/01/07 05:35:06;;;;;;;9.60;6.97;;;;;;;;;;5052693;28;20367;-52
2022/01/07 05:37:32;;;;;;;8.97;6.17;;;;;;;;;;5052664;28;20070;-52
2022/01/07 05:39:58;;;;;;;11.33;6.80;;;;;;;;;;5051803;28;20033;-54
2022/01/07 05:42:25;;;;;;;7.40;6.17;;;;;;;;;;5052181;28;20478;-57
2022/01/07 05:44:51;;;;;;;6.40;5.67;;;;;;;;;;5052577;28;20100;-51
2022/01/07 05:47:17;;;;;;;9.57;7.03;;;;;;;;;;5052723;28;20108;-51
2022/01/07 05:49:43;;;;;;;12.73;7.57;;;;;;;;;;5051832;28;20025;-54
2022/01/07 05:52:09;;;;;;;9.33;5.63;;;;;;;;;;5052279;28;20028;-52
2022/01/07 05:54:35;;;;;;;10.23;7.17;;;;;;;;;;5052063;28;20033;-56
2022/01/07 05:57:01;;;;;;;7.83;6.90;;;;;;;;;;5052055;28;20062;-53
2022/01/07 05:59:27;;;;;;;16.07;7.73;;;;;;;;;;5051857;28;20060;-54
2022/01/07 06:01:53;;;;;;;6.90;5.40;;;;;;;;;;5046147;28;20029;-52
2022/01/07 06:04:19;;;;;;;6.87;6.03;;;;;;;;;;5032386;28;20044;-53
2022/01/07 06:06:45;;;;;;;8.90;5.83;;;;;;;;;;5032195;28;20464;-52
2022/01/07 06:09:11;;;;;;;8.60;5.63;;;;;;;;;;5031261;28;20459;-53
2022/01/07 06:11:37;;;;;;;9.13;6.13;;;;;;;;;;5035014;28;20028;-54
2022/01/07 06:14:03;;;;;;;11.03;7.27;;;;;;;;;;5052016;28;20108;-54
2022/01/07 06:16:29;;;;;;;11.20;7.53;;;;;;;;;;5052176;28;20057;-56
2022/01/07 06:18:56;;;;;;;9.93;7.03;;;;;;;;;;5051857;28;20037;-54
2022/01/07 06:21:22;;;;;;;11.33;7.80;;;;;;;;;;5052001;28;20033;-53
2022/01/07 06:23:49;;;;;;;20.33;9.23;;;;;;;;;;5051799;28;20033;-52
2022/01/07 06:26:15;;;;;;;10.90;6.93;;;;;;;;;;5051847;28;20463;-56
2022/01/07 06:28:41;;;;;;;8.67;7.20;;;;;;;;;;5051396;28;20028;-54
2022/01/07 06:31:07;;;;;;;18.23;8.97;;;;;;;;;;5050361;28;20033;-54
2022/01/07 06:33:33;;;;;;;16.57;7.83;;;;;;;;;;5051866;28;20041;-55
2022/01/07 06:35:59;;;;;;;10.03;6.53;;;;;;;;;;5052675;28;20424;-52
2022/01/07 06:38:25;;;;;;;8.70;6.13;;;;;;;;;;5055289;28;20032;-55
2022/01/07 06:40:51;;;;;;;6.90;5.90;;;;;;;;;;5056077;28;20108;-55
2022/01/07 06:43:17;;;;;;;11.70;7.10;;;;;;;;;;5055784;28;20029;-55
2022/01/07 06:45:43;;;;;;;6.70;6.03;;;;;;;;;;5055784;28;20028;-53
2022/01/07 06:48:09;;;;;;;9.17;6.63;;;;;;;;;;5055030;28;20028;-55
2022/01/07 06:50:35;;;;;;;12.40;6.90;;;;;;;;;;5055564;28;20029;-55
2022/01/07 06:53:01;;;;;;;7.80;6.47;;;;;;;;;;5055292;28;20036;-56
2022/01/07 06:55:27;;;;;;;11.83;7.60;;;;;;;;;;5055675;28;20028;-56
2022/01/07 06:57:53;;;;;;;9.13;6.77;;;;;;;;;;5054894;28;20493;-53
2022/01/07 07:00:19;;;;;;;9.43;6.93;;;;;;;;;;5055904;28;20036;-55
2022/01/07 07:02:44;;;;;;;9.87;6.27;;;;;;;;;;5042399;28;20108;-55
2022/01/07 07:05:11;;;;;;;9.93;6.93;;;;;;;;;;5035876;28;20021;-56
2022/01/07 07:07:37;;;;;;;7.13;6.40;;;;;;;;;;5035155;28;20104;-55
2022/01/07 07:10:03;;;;;;;6.20;5.23;;;;;;;;;;5034941;28;20113;-53
2022/01/07 07:12:30;;;;;;;7.53;6.67;;;;;;;;;;5045475;28;20029;-55
2022/01/07 07:14:56;;;;;;;8.07;5.77;;;;;;;;;;5055307;28;20029;-54
2022/01/07 07:17:23;;;;;;;9.43;6.70;;;;;;;;;;5055233;28;20112;-55
2022/01/07 07:19:49;;;;;;;8.10;7.23;;;;;;;;;;5054421;28;20029;-55
2022/01/07 07:22:15;;;;;;;7.93;5.97;;;;;;;;;;5054719;28;20024;-54
2022/01/07 07:24:41;;;;;;;7.20;5.93;;;;;;;;;;5055381;28;20025;-54
2022/01/07 07:27:07;;;;;;;5.70;5.10;;;;;;;;;;5055180;28;20119;-52
2022/01/07 07:29:33;;;;;;;7.37;6.53;;;;;;;;;;5054387;28;20121;-54
2022/01/07 07:32:03;;;;;;;10.23;6.47;;;;;;;;;;5052722;28;20029;-55
2022/01/07 07:34:56;;;;;;;8.80;5.85;;;;;;;;;;5054732;28;20061;-53
2022/01/07 07:37:21;;;;;;;5.87;5.23;;;;;;;;;;5054580;28;20500;-54
2022/01/07 07:39:47;;;;;;;7.03;6.33;;;;;;;;;;5054138;28;20122;-55
2022/01/07 07:42:13;;;;;;;7.13;5.77;;;;;;;;;;5054634;28;20053;-53
2022/01/07 07:44:39;;;;;;;8.27;6.27;;;;;;;;;;5054542;28;20087;-56
2022/01/07 07:47:05;;;;;;;6.93;5.97;;;;;;;;;;5054143;28;20024;-51
2022/01/07 07:49:31;;;;;;;9.43;5.80;;;;;;;;;;5053347;28;20025;-54
2022/01/07 07:51:57;;;;;;;8.40;6.73;;;;;;;;;;5054479;28;20159;-55
2022/01/07 07:54:23;;;;;;;7.13;5.97;;;;;;;;;;5054305;28;20541;-53
2022/01/07 07:56:49;;;;;;;10.03;7.20;;;;;;;;;;5054556;28;20028;-53
2022/01/07 07:59:15;;;;;;;6.30;5.77;;;;;;;;;;5053574;28;20128;-53
2022/01/07 08:01:42;;;;;;;5.37;4.87;;;;;;;;;;5049537;28;20026;-51
2022/01/07 08:04:10;;;;;;;8.77;6.80;;;;;;;;;;5034503;28;20041;-53
2022/01/07 08:06:36;;;;;;;7.97;6.83;;;;;;;;;;5034081;28;20025;-55
2022/01/07 08:09:03;;;;;;;14.13;7.50;;;;;;;;;;5033817;28;20026;-55
2022/01/07 08:11:33;;;;;;;9.83;5.60;;;;;;;;;;5036096;28;20022;-54
2022/01/07 08:16:43;;;;;;;9.03;6.17;;;;;;;;;;5054269;28;20036;-53
2022/01/07 08:19:09;;;;;;;7.97;6.23;;;;;;;;;;5053466;28;20029;-56
2022/01/07 08:21:35;;;;;;;11.60;5.90;;;;;;;;;;5053787;28;20086;-54
2022/01/07 08:24:01;;;;;;;9.40;5.70;;;;;;;;;;5053879;28;20032;-53
2022/01/07 08:26:27;;;;;;;7.03;4.90;;;;;;;;;;5053775;28;20079;-54
2022/01/07 08:28:58;;;;;;;9.60;6.40;;;;;;;;;;5052675;28;20237;-54
2022/01/07 08:34:53;;;;;;;11.75;7.38;;;;;;;;;;5052433;28;20056;-54
2022/01/07 08:36:55;;;;;;;11.47;6.90;;;;;;;;;;5053420;28;20513;-55
2022/01/07 08:39:22;;;;;;;9.13;5.40;;;;;;;;;;5052717;28;20024;-54
2022/01/07 08:41:48;;;;;;;10.33;6.50;;;;;;;;;;5053363;28;20420;-54
2022/01/07 08:44:14;;;;;;;8.77;5.20;;;;;;;;;;5053428;28;20025;-53
2022/01/07 08:46:42;;;;;;;10.10;7.17;;;;;;;;;;5053458;28;20438;-52
2022/01/07 08:49:08;;;;;;;10.10;6.43;;;;;;;;;;5052732;28;20025;-53
2022/01/07 08:51:35;;;;;;;8.10;6.30;;;;;;;;;;5053354;28;20063;-51
2022/01/07 08:54:01;;;;;;;6.67;6.03;;;;;;;;;;5053008;28;20036;-56
2022/01/07 08:56:27;;;;;;;9.53;6.33;;;;;;;;;;5053235;28;20029;-55
2022/01/07 08:58:57;;;;;;;6.37;5.77;;;;;;;;;;5052284;28;20021;-54
2022/01/07 09:01:24;;;;;;;5.37;4.60;;;;;;;;;;5051155;28;20025;-56
2022/01/07 09:03:50;;;;;;;4.70;4.23;;;;;;;;;;5032906;28;20025;-55
2022/01/07 09:06:16;;;;;;;4.83;4.20;;;;;;;;;;5032996;28;20424;-56
2022/01/07 09:08:42;;;;;;;5.63;4.93;;;;;;;;;;5032409;28;20439;-51
2022/01/07 09:11:08;;;;;;;9.30;4.90;;;;;;;;;;5033190;28;20033;-51
2022/01/07 09:13:34;;;;;;;6.87;5.87;;;;;;;;;;5052376;28;20091;-50
2022/01/07 09:16:00;;;;;;;6.93;4.40;;;;;;;;;;5052825;28;20033;-55
2022/01/07 09:18:26;;;;;;;9.50;5.30;;;;;;;;;;5052067;28;20025;-54
2022/01/07 09:20:52;;;;;;;5.43;4.73;;;;;;;;;;5052775;28;20025;-55
2022/01/07 09:23:18;;;;;;;7.53;5.67;;;;;;;;;;5053061;28;20029;-51
2022/01/07 09:25:44;;;;;;;7.60;5.80;;;;;;;;;;5052808;28;20075;-53
2022/01/07 09:28:10;;;;;;;6.97;5.80;;;;;;;;;;5052431;28;20021;-51
2022/01/07 09:30:37;;;;;;;10.20;4.93;;;;;;;;;;5052765;28;20176;-53
2022/01/07 09:33:03;;;;;;;5.87;4.83;;;;;;;;;;5052428;28;20449;-52
2022/01/07 09:35:29;;;;;;;6.17;4.17;;;;;;;;;;5052561;28;20067;-55
2022/01/07 09:37:55;;;;;;;7.17;5.77;;;;;;;;;;5051997;28;20057;-57
2022/01/07 09:40:22;;;;;;;5.37;4.20;;;;;;;;;;5052645;28;20032;-53
2022/01/07 09:43:08;;;;;;;10.47;5.50;;;;;;;;;;5052441;28;20119;-55
2022/01/07 09:45:35;;;;;;;6.73;4.63;;;;;;;;;;5052454;28;20227;-51
2022/01/07 09:48:01;;;;;;;10.47;4.50;;;;;;;;;;5051416;28;20089;-50
2022/01/07 09:50:29;;;;;;;7.00;5.93;;;;;;;;;;5052522;28;20021;-55
2022/01/07 09:52:55;;;;;;;6.30;4.23;;;;;;;;;;5052304;28;20111;-52
2022/01/07 09:55:21;;;;;;;6.23;4.10;;;;;;;;;;5052314;28;20075;-55
2022/01/07 09:57:47;;;;;;;11.90;4.73;;;;;;;;;;5051530;28;20132;-51
2022/01/07 10:00:13;;;;;;;7.40;4.80;;;;;;;;;;5051968;28;20032;-52
2022/01/07 10:02:57;;;;;;;6.10;5.40;;;;;;;;;;5039140;28;20163;-57
2022/01/07 10:05:23;;;;;;;6.73;3.80;;;;;;;;;;5032187;28;20245;-51
2022/01/07 10:07:49;;;;;;;6.53;4.77;;;;;;;;;;5031618;28;20464;-51
2022/01/07 10:10:19;;;;;;;6.83;5.57;;;;;;;;;;5031773;28;20410;-51
2022/01/07 10:12:53;;;;;;;4.45;3.90;;;;;;;;;;5044384;28;20033;-54
2022/01/07 10:15:19;;;;;;;9.20;5.17;;;;;;;;;;5052126;28;20033;-53
2022/01/07 10:17:56;;;;;;;5.53;3.83;;;;;;;;;;5051518;28;20031;-52
2022/01/07 10:20:23;;;;;;;6.00;4.10;;;;;;;;;;5052139;28;20030;-51
2022/01/07 10:22:51;;;;;;;7.30;4.93;;;;;;;;;;5051939;28;20440;-52
2022/01/07 10:25:25;;;;;;;7.07;5.40;;;;;;;;;;5051912;28;20025;-48
2022/01/07 10:27:51;;;;;;;6.90;5.00;;;;;;;;;;5051150;28;20032;-53
2022/01/07 10:30:26;;;;;;;5.67;4.43;;;;;;;;;;5052151;28;20017;-48
2022/01/07 10:32:53;;;;;;;6.43;4.43;;;;;;;;;;5051731;28;20021;-48
2022/01/07 10:35:20;;;;;;;5.57;4.90;;;;;;;;;;5051923;28;20080;-54
2022/01/07 10:37:59;;;;;;;6.57;5.33;;;;;;;;;;5051556;28;20057;-52
2022/01/07 10:40:30;;;;;;;11.20;5.73;;;;;;;;;;5052102;28;20025;-51
2022/01/07 10:43:08;;;;;;;9.57;4.83;;;;;;;;;;5051834;28;20033;-51
2022/01/07 10:45:34;;;;;;;5.97;4.47;;;;;;;;;;5051867;28;20108;-53
2022/01/07 10:48:00;;;;;;;6.90;4.83;;;;;;;;;;5050980;28;20398;-50
2022/01/07 10:50:27;;;;;;;5.23;4.47;;;;;;;;;;5051717;28;20072;-55
2022/01/07 10:53:13;;;;;;;6.50;4.23;;;;;;;;;;5051799;28;20040;-49
2022/01/07 10:55:39;;;;;;;6.77;4.37;;;;;;;;;;5051757;28;20479;-51
2022/01/07 10:58:05;;;;;;;8.23;4.60;;;;;;;;;;5051112;28;20032;-53
2022/01/07 11:00:36;;;;;;;6.63;5.20;;;;;;;;;;5051767;28;20466;-50
2022/01/07 11:03:07;;;;;;;8.00;5.73;;;;;;;;;;5035789;28;20040;-52
2022/01/07 11:05:33;;;;;;;7.00;4.55;;;;;;;;;;5031862;28;20061;-53
2022/01/07 11:07:59;;;;;;;6.27;4.47;;;;;;;;;;5031056;28;20052;-51
2022/01/07 11:10:26;;;;;;;7.53;4.77;;;;;;;;;;5031653;28;20030;-52
2022/01/07 11:12:53;;;;;;;4.50;3.97;;;;;;;;;;5044922;28;20379;-49
2022/01/07 11:15:19;;;;;;;9.23;5.57;;;;;;;;;;5051445;28;20025;-53
2022/01/07 11:17:44;;;;;;;7.00;5.53;;;;;;;;;;5050994;28;20490;-52
2022/01/07 11:20:12;;;;;;;6.27;4.60;;;;;;;;;;5051329;28;20462;-55
2022/01/07 11:22:40;;;;;;;9.00;4.40;;;;;;;;;;5053341;28;20033;-54
2022/01/07 11:25:08;;;;;;;5.23;4.47;;;;;;;;;;5054896;28;20122;-51
2022/01/07 11:27:48;;;;;;;6.20;4.87;;;;;;;;;;5055078;28;20037;-55
2022/01/07 11:30:14;;;;;;;16.07;5.97;;;;;;;;;;5054574;28;20079;-54
2022/01/07 11:32:40;;;;;;;6.23;5.63;;;;;;;;;;5054939;28;20493;-51
2022/01/07 11:35:19;;;;;;;5.80;4.40;;;;;;;;;;5054817;28;20072;-53
2022/01/07 11:37:46;;;;;;;6.00;5.07;;;;;;;;;;5054517;28;20490;-54
2022/01/07 11:40:31;;;;;;;9.63;5.67;;;;;;;;;;5054827;28;20038;-52
2022/01/07 11:43:31;;;;;;;10.83;5.00;;;;;;;;;;5054901;28;20033;-55
2022/01/07 11:45:57;;;;;;;10.00;5.38;;;;;;;;;;5054682;28;20040;-51
2022/01/07 11:48:26;;;;;;;9.50;5.17;;;;;;;;;;5054040;28;20029;-56
2022/01/07 11:50:59;;;;;;;5.73;4.63;;;;;;;;;;5054251;28;20021;-53
2022/01/07 11:53:28;;;;;;;6.00;4.30;;;;;;;;;;5054413;28;20064;-56
2022/01/07 11:56:01;;;;;;;6.10;4.40;;;;;;;;;;5054379;28;20056;-53
2022/01/07 11:58:47;;;;;;;7.73;5.17;;;;;;;;;;5053693;28;20025;-54
2022/01/07 12:01:25;;;;;;;9.03;5.90;;;;;;;;;;5053419;28;20340;-54
2022/01/07 12:03:53;;;;;;;7.27;5.17;;;;;;;;;;5034334;28;20025;-52
2022/01/07 12:06:26;;;;;;;7.80;5.67;;;;;;;;;;5034625;28;20104;-52
2022/01/07 12:09:05;;;;;;;8.67;4.43;;;;;;;;;;5033611;28;20017;-51
2022/01/07 12:11:34;;;;;;;10.23;5.07;;;;;;;;;;5036228;28;20104;-54
2022/01/07 12:14:00;;;;;;;8.23;4.63;;;;;;;;;;5054378;28;20108;-56
2022/01/07 12:16:30;;;;;;;8.90;5.33;;;;;;;;;;5054152;28;20029;-56
2022/01/07 12:19:16;;;;;;;5.53;4.95;;;;;;;;;;5053281;28;20112;-52
2022/01/07 12:21:42;;;;;;;7.13;4.83;;;;;;;;;;5053759;28;20175;-55
2022/01/07 12:24:09;;;;;;;6.03;5.43;;;;;;;;;;5054136;28;20036;-56
2022/01/07 12:26:35;;;;;;;7.80;5.73;;;;;;;;;;5054148;28;20067;-54
2022/01/07 12:29:01;;;;;;;6.53;3.87;;;;;;;;;;5053256;28;20057;-53
2022/01/07 12:31:27;;;;;;;8.90;5.57;;;;;;;;;;5053689;28;20429;-53
2022/01/07 12:33:55;;;;;;;8.23;4.73;;;;;;;;;;5052715;28;20044;-55
2022/01/07 12:36:27;;;;;;;6.23;4.63;;;;;;;;;;5053379;28;20037;-55
2022/01/07 12:38:59;;;;;;;9.33;5.30;;;;;;;;;;5052780;28;20025;-53
2022/01/07 12:41:25;;;;;;;6.13;4.97;;;;;;;;;;5053693;28;20029;-54
2022/01/07 12:44:04;;;;;;;10.20;4.83;;;;;;;;;;5053600;28;20377;-56
2022/01/07 12:46:29;;;;;;;6.63;4.20;;;;;;;;;;5053438;28;20021;-51
2022/01/07 12:48:56;;;;;;;5.20;4.07;;;;;;;;;;5052745;28;20021;-54
2022/01/07 12:51:22;;;;;;;9.03;4.70;;;;;;;;;;5053063;28;20075;-55
2022/01/07 12:53:59;;;;;;;7.43;4.40;;;;;;;;;;5053196;28;20087;-52
2022/01/07 12:56:26;;;;;;;15.17;5.07;;;;;;;;;;5053434;28;20136;-53
2022/01/07 12:58:53;;;;;;;5.77;3.90;;;;;;;;;;5052661;28;20150;-53
2022/01/07 13:01:28;;;;;;;7.17;4.07;;;;;;;;;;5051740;28;20075;-53
2022/01/07 13:04:01;;;;;;;7.97;4.17;;;;;;;;;;5032940;28;20121;-56
2022/01/07 13:06:27;;;;;;;8.00;4.30;;;;;;;;;;5033103;28;20156;-54
2022/01/07 13:08:53;;;;;;;6.53;4.07;;;;;;;;;;5032972;28;20065;-55
2022/01/07 13:11:19;;;;;;;6.30;4.03;;;;;;;;;;5033688;28;20026;-55
2022/01/07 13:13:45;;;;;;;8.23;4.00;;;;;;;;;;5052810;28;20065;-52
2022/01/07 13:16:11;;;;;;;5.00;3.70;;;;;;;;;;5052822;28;20060;-51
2022/01/07 13:18:40;;;;;;;6.20;3.97;;;;;;;;;;5052149;28;20029;-52
2022/01/07 13:21:06;;;;;;;5.37;3.77;;;;;;;;;;5052576;28;20453;-56
2022/01/07 13:23:39;;;;;;;6.80;4.43;;;;;;;;;;5052786;28;20112;-54
2022/01/07 13:26:05;;;;;;;5.80;3.20;;;;;;;;;;5052730;28;20025;-54
2022/01/07 13:28:34;;;;;;;4.80;3.53;;;;;;;;;;5052075;28;20017;-55
2022/01/07 13:31:00;;;;;;;5.60;3.60;;;;;;;;;;5052391;28;20032;-51
2022/01/07 13:33:28;;;;;;;5.20;3.67;;;;;;;;;;5052617;28;20036;-54
2022/01/07 13:35:56;;;;;;;3.67;3.00;;;;;;;;;;5052420;28;20036;-52
2022/01/07 13:38:22;;;;;;;4.90;2.90;;;;;;;;;;5051990;28;20025;-54
2022/01/07 13:40:49;;;;;;;5.00;3.13;;;;;;;;;;5052480;28;20089;-53
2022/01/07 13:43:16;;;;;;;8.57;3.13;;;;;;;;;;5052372;28;20033;-55
2022/01/07 13:45:43;;;;;;;4.37;2.20;;;;;;;;;;5051568;28;20051;-54
2022/01/07 13:48:10;;;;;;;4.27;3.23;;;;;;;;;;5051923;28;20025;-54
2022/01/07 13:50:38;;;;;;;4.17;3.33;;;;;;;;;;5052356;28;20035;-51
2022/01/07 13:53:12;;;;;;;4.27;2.83;;;;;;;;;;5052133;28;20037;-55
2022/01/07 13:55:39;;;;;;;3.50;2.33;;;;;;;;;;5052159;28;20047;-52
2022/01/07 13:58:06;;;;;;;3.73;3.17;;;;;;;;;;5051376;28;20029;-55
2022/01/07 14:00:32;;;;;;;3.63;2.30;;;;;;;;;;5052230;28;20035;-55
2022/01/07 14:02:57;;;;;;;2.67;1.93;;;;;;;;;;5037567;28;20108;-54
2022/01/07 14:05:23;;;;;;;3.47;2.43;;;;;;;;;;5032280;28;20032;-55
2022/01/07 14:07:50;;;;;;;5.57;2.80;;;;;;;;;;5031583;28;20030;-53
2022/01/07 14:10:16;;;;;;;3.30;2.20;;;;;;;;;;5032277;28;20021;-56
2022/01/07 14:12:50;;;;;;;5.33;3.00;;;;;;;;;;5043649;28;20091;-53
2022/01/07 14:15:17;;;;;;;4.97;2.83;;;;;;;;;;5052122;28;20029;-50
2022/01/07 14:17:43;;;;;;;3.70;2.77;;;;;;;;;;5051661;28;20418;-55
2022/01/07 14:20:12;;;;;;;4.80;2.83;;;;;;;;;;5051504;28;20029;-52
2022/01/07 14:22:42;;;;;;;6.13;3.73;;;;;;;;;;5051735;28;20033;-54
2022/01/07 14:25:09;;;;;;;6.77;4.07;;;;;;;;;;5051785;28;20086;-53
2022/01/07 14:27:36;;;;;;;4.47;3.40;;;;;;;;;;5051888;28;20032;-53
2022/01/07 14:30:04;;;;;;;5.50;3.47;;;;;;;;;;5051604;28;20021;-51
2022/01/07 14:32:30;;;;;;;4.07;2.47;;;;;;;;;;5051835;28;20114;-55
2022/01/07 14:34:58;;;;;;;2.90;2.13;;;;;;;;;;5051429;28;20099;-56
2022/01/07 14:37:28;;;;;;;5.00;2.83;;;;;;;;;;5051608;28;20101;-52
2022/01/07 14:39:54;;;;;;;6.20;3.15;;;;;;;;;;5051148;28;20071;-52
2022/01/07 14:42:21;;;;;;;3.57;2.20;;;;;;;;;;5051874;28;20029;-53
2022/01/07 14:44:48;;;;;;;6.43;2.33;;;;;;;;;;5051959;28;20079;-52
2022/01/07 14:47:14;;;;;;;4.33;2.27;;;;;;;;;;5051721;28;20021;-56